createdAt,value
2018-08-13T00:01:10.707Z,1.87
2018-08-13T00:06:05.260Z,2.00
2018-08-13T00:10:59.736Z,1.77
2018-08-13T00:15:54.245Z,2.00
2018-08-13T00:20:48.800Z,1.80
2018-08-13T00:25:43.314Z,2.10
2018-08-13T00:30:37.977Z,1.97
2018-08-13T00:35:32.458Z,1.90
2018-08-13T00:40:26.970Z,2.10
2018-08-13T00:45:21.428Z,1.80
2018-08-13T00:50:16.992Z,2.20
2018-08-13T00:55:12.751Z,2.13
2018-08-13T01:00:12.111Z,1.70
2018-08-13T01:05:07.700Z,1.90
2018-08-13T01:10:02.311Z,2.03
2018-08-13T01:14:56.850Z,2.10
2018-08-13T01:19:51.350Z,1.77
2018-08-13T01:24:45.901Z,1.90
2018-08-13T01:29:40.376Z,1.80
2018-08-13T01:34:34.836Z,1.83
2018-08-13T01:39:30.343Z,2.10
2018-08-13T01:44:24.863Z,2.03
2018-08-13T01:49:19.394Z,2.13
2018-08-13T01:54:13.882Z,2.10
2018-08-13T01:59:08.373Z,1.80
2018-08-13T02:04:02.860Z,1.90
2018-08-13T02:08:57.418Z,1.97
2018-08-13T02:13:51.923Z,1.93
2018-08-13T02:18:46.469Z,1.97
2018-08-13T02:23:40.968Z,1.93
2018-08-13T02:28:35.460Z,2.10
2018-08-13T02:33:29.918Z,2.27
2018-08-13T02:38:24.401Z,1.87
2018-08-13T02:43:18.888Z,1.80
2018-08-13T02:48:13.399Z,1.93
2018-08-13T02:53:07.876Z,2.07
2018-08-13T02:58:02.364Z,2.10
2018-08-13T03:02:57.048Z,1.83
2018-08-13T03:07:51.555Z,1.77
2018-08-13T03:12:47.817Z,1.90
2018-08-13T03:17:42.336Z,1.90
2018-08-13T03:22:37.018Z,2.03
2018-08-13T03:27:31.498Z,2.10
2018-08-13T03:32:26.027Z,2.03
2018-08-13T03:37:20.500Z,2.00
2018-08-13T03:42:15.016Z,1.93
2018-08-13T03:47:09.646Z,2.10
2018-08-13T03:52:04.127Z,2.07
2018-08-13T03:56:58.770Z,1.80
2018-08-13T04:01:53.377Z,1.97
2018-08-13T04:06:47.858Z,2.30
2018-08-13T04:11:42.343Z,1.93
2018-08-13T04:16:37.094Z,2.67
2018-08-13T04:21:31.592Z,2.37
2018-08-13T04:26:26.088Z,2.40
2018-08-13T04:31:21.144Z,2.37
2018-08-13T04:36:15.634Z,2.70
2018-08-13T04:41:10.134Z,2.47
2018-08-13T04:46:04.842Z,3.43
2018-08-13T04:50:59.568Z,2.90
2018-08-13T04:55:54.058Z,2.93
2018-08-13T05:00:48.524Z,2.93
2018-08-13T05:05:43.074Z,2.87
2018-08-13T05:10:37.718Z,2.97
2018-08-13T05:15:32.297Z,3.10
2018-08-13T05:20:27.375Z,3.17
2018-08-13T05:25:21.866Z,3.03
2018-08-13T05:30:16.566Z,2.90
2018-08-13T05:35:11.504Z,3.57
2018-08-13T05:40:07.807Z,3.83
2018-08-13T05:45:02.330Z,3.30
2018-08-13T05:49:56.900Z,3.87
2018-08-13T05:54:51.407Z,3.43
2018-08-13T05:59:45.936Z,3.93
2018-08-13T06:04:40.646Z,3.70
2018-08-13T06:09:35.098Z,3.73
2018-08-13T06:14:29.967Z,3.80
2018-08-13T06:19:24.608Z,4.67
2018-08-13T06:24:19.241Z,4.10
2018-08-13T06:29:13.861Z,4.17
2018-08-13T06:34:08.376Z,4.03
2018-08-13T06:39:03.083Z,3.60
2018-08-13T06:43:57.570Z,3.80
2018-08-13T06:48:52.195Z,3.53
2018-08-13T06:53:46.850Z,3.97
2018-08-13T06:58:41.338Z,4.00
2018-08-13T07:03:35.986Z,3.83
2018-08-13T07:08:30.650Z,4.33
2018-08-13T07:13:25.160Z,4.10
2018-08-13T07:18:19.695Z,3.93
2018-08-13T07:23:14.224Z,3.80
2018-08-13T07:28:09.013Z,3.87
2018-08-13T07:33:03.695Z,3.57
2018-08-13T07:37:58.310Z,3.50
2018-08-13T07:42:52.872Z,3.50
2018-08-13T07:47:47.403Z,2.93
2018-08-13T07:52:42.392Z,3.60
2018-08-13T07:57:37.091Z,3.40
2018-08-13T08:02:31.692Z,3.20
2018-08-13T08:07:26.159Z,3.63
2018-08-13T08:12:20.676Z,4.03
2018-08-13T08:17:15.167Z,4.20
2018-08-13T08:22:09.655Z,4.20
2018-08-13T08:27:04.187Z,3.57
2018-08-13T08:31:58.767Z,4.27
2018-08-13T08:36:53.394Z,3.87
2018-08-13T08:41:47.957Z,3.53
2018-08-13T08:46:43.126Z,3.10
2018-08-13T08:51:39.416Z,2.80
2018-08-13T08:56:34.522Z,3.50
2018-08-13T09:01:29.160Z,3.20
2018-08-13T09:06:23.930Z,3.20
2018-08-13T09:11:18.697Z,3.20
2018-08-13T09:16:13.202Z,2.73
2018-08-13T09:21:24.653Z,2.53
2018-08-13T09:26:36.318Z,2.47
2018-08-13T09:32:13.328Z,2.67
2018-08-13T09:37:08.008Z,2.40
2018-08-13T09:42:02.569Z,1.97
2018-08-13T09:46:57.114Z,2.33
2018-08-13T09:51:51.675Z,2.40
2018-08-13T09:56:46.246Z,2.90
2018-08-13T10:01:40.780Z,2.77
2018-08-13T10:06:35.486Z,3.20
2018-08-13T10:11:29.970Z,3.20
2018-08-13T10:16:24.586Z,2.33
2018-08-13T10:21:19.199Z,2.60
2018-08-13T10:26:14.102Z,2.57
2018-08-13T10:31:08.652Z,2.30
2018-08-13T10:36:03.250Z,2.70
2018-08-13T10:40:57.934Z,2.63
2018-08-13T10:45:52.711Z,3.33
2018-08-13T10:50:47.432Z,2.80
2018-08-13T10:55:42.021Z,2.80
2018-08-13T11:00:36.698Z,2.50
2018-08-13T11:05:31.226Z,2.80
2018-08-13T11:10:25.785Z,2.53
2018-08-13T11:15:21.015Z,2.70
2018-08-13T11:20:16.547Z,2.73
2018-08-13T11:25:13.432Z,2.70
2018-08-13T11:30:11.383Z,2.40
2018-08-13T11:35:07.349Z,2.80
2018-08-13T11:40:01.788Z,2.90
2018-08-13T11:44:56.410Z,2.80
2018-08-13T11:49:50.981Z,3.10
2018-08-13T11:54:46.051Z,3.23
2018-08-13T11:59:40.579Z,3.00
2018-08-13T12:04:35.113Z,3.43
2018-08-13T12:09:29.677Z,3.13
2018-08-13T12:14:24.318Z,3.80
2018-08-13T12:19:18.857Z,3.70
2018-08-13T12:24:13.449Z,6.03
2018-08-13T12:29:08.535Z,4.33
2018-08-13T12:34:03.064Z,4.27
2018-08-13T12:38:57.559Z,3.67
2018-08-13T12:43:52.538Z,2.80
2018-08-13T12:48:47.154Z,3.60
2018-08-13T12:53:41.795Z,2.10
2018-08-13T12:58:36.265Z,2.93
2018-08-13T13:03:31.675Z,3.40
2018-08-13T13:08:26.410Z,2.90
2018-08-13T13:13:20.905Z,2.20
2018-08-13T13:18:15.534Z,2.07
2018-08-13T13:23:10.065Z,2.10
2018-08-13T13:28:04.612Z,2.20
2018-08-13T13:32:59.077Z,2.07
2018-08-13T13:37:53.714Z,2.33
2018-08-13T13:42:48.203Z,2.03
2018-08-13T13:47:42.741Z,1.60
2018-08-13T13:52:37.387Z,2.00
2018-08-13T13:57:32.189Z,1.90
2018-08-13T14:02:26.724Z,1.50
2018-08-13T14:07:21.311Z,1.67
2018-08-13T14:12:15.917Z,1.47
2018-08-13T14:17:10.653Z,1.43
2018-08-13T14:22:05.791Z,1.50
2018-08-13T14:27:00.275Z,1.70
2018-08-13T14:31:54.801Z,1.40
2018-08-13T14:36:49.380Z,1.47
2018-08-13T14:41:43.919Z,1.40
2018-08-13T14:46:38.566Z,1.40
2018-08-13T14:51:33.481Z,1.33
2018-08-13T14:56:28.210Z,1.43
2018-08-13T15:01:22.945Z,1.40
2018-08-13T15:06:17.558Z,1.30
2018-08-13T15:11:12.314Z,1.30
2018-08-13T15:16:06.972Z,1.20
2018-08-13T15:21:01.461Z,1.20
2018-08-13T15:25:56.020Z,1.40
2018-08-13T15:30:50.536Z,1.70
2018-08-13T15:35:45.012Z,1.43
2018-08-13T15:40:39.487Z,1.37
2018-08-13T15:45:34.008Z,1.40
2018-08-13T15:50:28.680Z,1.50
2018-08-13T15:55:23.708Z,1.33
2018-08-13T16:00:22.267Z,1.90
2018-08-13T16:05:16.777Z,1.60
2018-08-13T16:10:13.894Z,1.40
2018-08-13T16:15:09.079Z,2.00
2018-08-13T16:20:04.666Z,1.90
2018-08-13T16:24:59.382Z,2.03
2018-08-13T16:29:54.099Z,1.50
2018-08-13T16:34:48.833Z,1.40
2018-08-13T16:39:43.615Z,1.33
2018-08-13T16:44:38.094Z,1.20
2018-08-13T16:49:32.835Z,1.20
2018-08-13T16:54:27.393Z,1.00
2018-08-13T16:59:21.843Z,1.30
2018-08-13T17:04:16.681Z,1.07
2018-08-13T17:09:12.264Z,1.17
2018-08-13T17:14:11.763Z,1.13
2018-08-13T17:19:06.471Z,1.40
2018-08-13T17:24:01.033Z,1.57
2018-08-13T17:28:55.765Z,1.77
2018-08-13T17:33:50.289Z,1.70
2018-08-13T17:38:45.354Z,2.10
2018-08-13T17:43:39.949Z,1.87
2018-08-13T17:48:34.536Z,1.77
2018-08-13T17:53:29.394Z,2.00
2018-08-13T17:58:24.218Z,1.90
2018-08-13T18:03:18.995Z,2.40
2018-08-13T18:08:13.502Z,1.50
2018-08-13T18:13:09.875Z,1.97
2018-08-13T18:18:04.481Z,1.53
2018-08-13T18:22:59.172Z,1.70
2018-08-13T18:27:53.953Z,2.10
2018-08-13T18:32:49.229Z,1.40
2018-08-13T18:37:43.714Z,1.43
2018-08-13T18:42:38.533Z,1.40
2018-08-13T18:47:33.031Z,1.30
2018-08-13T18:52:27.552Z,1.50
2018-08-13T18:57:21.996Z,1.40
2018-08-13T19:02:16.566Z,1.20
2018-08-13T19:07:11.055Z,1.30
2018-08-13T19:12:05.576Z,1.33
2018-08-13T19:17:00.052Z,1.60
2018-08-13T19:21:54.599Z,1.87
2018-08-13T19:26:49.102Z,2.07
2018-08-13T19:31:43.639Z,2.20
2018-08-13T19:36:38.298Z,2.83
2018-08-13T19:41:32.944Z,2.07
2018-08-13T19:46:27.464Z,2.10
2018-08-13T19:51:22.490Z,2.53
2018-08-13T19:56:17.363Z,2.17
2018-08-13T20:01:11.955Z,2.20
2018-08-13T20:06:06.462Z,2.07
2018-08-13T20:11:00.977Z,2.20
2018-08-13T20:15:55.506Z,2.70
2018-08-13T20:20:50.071Z,2.17
2018-08-13T20:25:44.577Z,2.27
2018-08-13T20:30:39.580Z,2.10
2018-08-13T20:35:34.003Z,2.00
2018-08-13T20:40:28.509Z,2.00
2018-08-13T20:45:23.275Z,1.90
2018-08-13T20:50:23.097Z,2.07
2018-08-13T20:55:20.012Z,2.20
2018-08-13T21:00:15.609Z,2.40
2018-08-13T21:05:11.091Z,1.93
2018-08-13T21:10:07.525Z,2.30
2018-08-13T21:15:02.061Z,2.80
2018-08-13T21:19:56.773Z,2.20
2018-08-13T21:24:51.275Z,2.20
2018-08-13T21:29:45.777Z,2.10
2018-08-13T21:34:40.600Z,2.50
2018-08-13T21:39:35.140Z,2.27
2018-08-13T21:44:29.626Z,2.40
2018-08-13T21:49:24.367Z,2.10
2018-08-13T21:54:18.894Z,2.33
2018-08-13T21:59:13.400Z,2.07
2018-08-13T22:04:07.861Z,2.43
2018-08-13T22:09:02.389Z,2.30
2018-08-13T22:13:57.072Z,2.40
2018-08-13T22:18:52.280Z,2.30
2018-08-13T22:24:03.929Z,2.03
2018-08-13T22:28:58.422Z,2.00
2018-08-13T22:33:52.920Z,2.30
2018-08-13T22:38:47.408Z,2.33
2018-08-13T22:43:41.888Z,2.50
2018-08-13T22:48:36.370Z,2.87
2018-08-13T22:53:30.866Z,2.40
2018-08-13T22:58:25.472Z,2.50
2018-08-13T23:03:20.143Z,3.03
2018-08-13T23:08:14.627Z,3.00
2018-08-13T23:13:18.287Z,2.83
2018-08-13T23:18:12.714Z,3.43
2018-08-13T23:23:07.168Z,3.20
2018-08-13T23:28:02.811Z,3.40
2018-08-13T23:32:58.365Z,3.63
2018-08-13T23:37:53.369Z,3.17
2018-08-13T23:42:48.066Z,2.97
2018-08-13T23:47:42.530Z,2.83
2018-08-13T23:52:37.478Z,3.17
2018-08-13T23:57:32.184Z,3.10
